createdAt,value
2023-02-03T00:01:22.855Z,11.50
2023-02-03T00:03:49.466Z,15.20
2023-02-03T00:06:16.097Z,16.48
2023-02-03T00:08:42.492Z,18.25
2023-02-03T00:11:09.064Z,16.77
2023-02-03T00:13:35.893Z,15.80
2023-02-03T00:16:02.391Z,15.65
2023-02-03T00:18:28.881Z,21.42
2023-02-03T00:20:55.306Z,15.75
2023-02-03T00:23:21.727Z,22.75
2023-02-03T00:25:48.129Z,25.00
2023-02-03T00:28:14.653Z,26.15
2023-02-03T00:30:41.157Z,29.98
2023-02-03T00:33:07.542Z,33.90
2023-02-03T00:35:33.894Z,32.45
2023-02-03T00:38:00.328Z,33.42
2023-02-03T00:40:27.788Z,30.52
2023-02-03T00:42:54.985Z,30.17
2023-02-03T00:45:21.601Z,37.95
2023-02-03T00:47:48.019Z,41.38
2023-02-03T00:50:14.495Z,32.53
2023-02-03T00:52:41.087Z,39.95
2023-02-03T00:55:08.140Z,34.15
2023-02-03T00:57:34.504Z,38.05
2023-02-03T01:00:00.934Z,37.33
2023-02-03T01:02:27.584Z,32.55
2023-02-03T01:04:54.088Z,30.15
2023-02-03T01:07:20.517Z,37.28
2023-02-03T01:09:48.471Z,23.75
2023-02-03T01:12:15.134Z,43.22
2023-02-03T01:14:41.521Z,32.70
2023-02-03T01:17:09.336Z,36.65
2023-02-03T01:19:35.759Z,35.75
2023-02-03T01:22:02.253Z,44.38
2023-02-03T01:24:30.649Z,37.17
2023-02-03T01:26:57.048Z,32.65
2023-02-03T01:29:23.580Z,34.63
2023-02-03T01:31:50.216Z,38.72
2023-02-03T01:34:18.369Z,32.08
2023-02-03T01:36:46.668Z,39.67
2023-02-03T01:39:13.220Z,46.13
2023-02-03T01:41:40.536Z,52.10
2023-02-03T01:44:43.966Z,32.17
2023-02-03T01:47:40.143Z,35.45
2023-02-03T01:50:22.993Z,31.83
2023-02-03T01:52:54.589Z,32.45
2023-02-03T01:55:25.999Z,28.20
2023-02-03T01:58:14.933Z,32.80
2023-02-03T02:00:42.176Z,33.40
2023-02-03T02:03:09.184Z,39.75
2023-02-03T02:05:45.479Z,29.27
2023-02-03T02:08:13.715Z,35.03
2023-02-03T02:10:40.188Z,28.83
2023-02-03T02:13:06.914Z,36.47
2023-02-03T02:15:40.783Z,23.02
2023-02-03T02:18:20.483Z,25.42
2023-02-03T02:21:01.372Z,29.60
2023-02-03T02:24:03.509Z,27.80
2023-02-03T02:26:50.621Z,28.80
2023-02-03T02:29:50.109Z,32.72
2023-02-03T02:32:42.646Z,20.83
2023-02-03T02:35:34.104Z,32.45
2023-02-03T02:38:06.775Z,25.38
2023-02-03T02:40:46.067Z,36.38
2023-02-03T02:43:22.577Z,29.17
2023-02-03T02:46:28.969Z,25.83
2023-02-03T02:49:04.598Z,22.17
2023-02-03T02:51:32.225Z,22.35
2023-02-03T02:54:05.603Z,26.25
2023-02-03T02:56:34.289Z,23.48
2023-02-03T02:59:03.944Z,16.05
2023-02-03T03:01:30.677Z,24.15
2023-02-03T03:03:58.605Z,28.98
2023-02-03T03:06:52.144Z,24.73
2023-02-03T03:09:23.538Z,16.88
2023-02-03T03:12:02.192Z,23.00
2023-02-03T03:14:32.279Z,27.27
2023-02-03T03:17:06.208Z,22.80
2023-02-03T03:19:37.221Z,22.35
2023-02-03T03:22:07.408Z,16.67
2023-02-03T03:24:41.564Z,16.30
2023-02-03T03:27:24.310Z,23.13
2023-02-03T03:29:56.422Z,27.25
2023-02-03T03:32:23.201Z,18.20
2023-02-03T03:34:50.605Z,19.55
2023-02-03T03:37:30.698Z,18.50
2023-02-03T03:39:59.757Z,15.43
2023-02-03T03:42:40.809Z,17.10
2023-02-03T03:45:14.818Z,21.20
2023-02-03T03:47:55.636Z,13.23
2023-02-03T03:50:27.995Z,12.07
2023-02-03T03:52:57.408Z,18.25
2023-02-03T03:55:27.564Z,22.05
2023-02-03T03:58:02.463Z,15.60
2023-02-03T04:00:32.094Z,13.85
2023-02-03T04:03:05.003Z,19.52
2023-02-03T04:05:33.284Z,19.40
2023-02-03T04:08:00.935Z,20.10
2023-02-03T04:10:31.664Z,16.08
2023-02-03T04:12:58.554Z,19.25
2023-02-03T04:15:25.173Z,15.55
2023-02-03T04:17:51.618Z,14.48
2023-02-03T04:20:18.305Z,13.13
2023-02-03T04:22:46.357Z,25.10
2023-02-03T04:25:12.912Z,14.63
2023-02-03T04:27:39.347Z,20.65
2023-02-03T04:30:06.447Z,12.93
2023-02-03T04:32:34.073Z,20.90
2023-02-03T04:35:00.513Z,12.70
2023-02-03T04:37:27.560Z,14.10
2023-02-03T04:39:55.357Z,19.50
2023-02-03T04:42:23.179Z,13.80
2023-02-03T04:44:49.971Z,8.88
2023-02-03T04:47:17.807Z,19.65
2023-02-03T04:49:44.474Z,12.65
2023-02-03T04:52:12.093Z,10.82
2023-02-03T04:54:38.640Z,12.70
2023-02-03T04:57:05.557Z,14.02
2023-02-03T04:59:32.305Z,21.65
2023-02-03T05:01:58.807Z,12.88
2023-02-03T05:04:25.280Z,18.30
2023-02-03T05:06:51.681Z,17.00
2023-02-03T05:09:18.225Z,17.80
2023-02-03T05:11:47.303Z,20.85
2023-02-03T05:14:13.657Z,15.32
2023-02-03T05:16:40.115Z,14.93
2023-02-03T05:19:06.553Z,21.92
2023-02-03T05:21:33.725Z,19.05
2023-02-03T05:24:00.390Z,14.23
2023-02-03T05:26:26.872Z,21.75
2023-02-03T05:28:55.013Z,17.77
2023-02-03T05:31:22.562Z,19.10
2023-02-03T05:33:48.982Z,18.67
2023-02-03T05:36:15.369Z,18.83
2023-02-03T05:38:42.522Z,23.98
2023-02-03T05:41:33.577Z,17.83
2023-02-03T05:43:59.961Z,15.90
2023-02-03T05:46:26.345Z,23.67
2023-02-03T05:48:52.808Z,18.50
2023-02-03T05:51:19.207Z,16.48
2023-02-03T05:53:45.703Z,17.70
2023-02-03T05:56:12.057Z,14.30
2023-02-03T05:58:38.662Z,19.92
2023-02-03T06:01:05.049Z,18.52
2023-02-03T06:03:31.598Z,18.85
2023-02-03T06:05:58.926Z,14.63
2023-02-03T06:08:28.501Z,13.65
2023-02-03T06:11:00.188Z,12.18
2023-02-03T06:13:27.878Z,14.82
2023-02-03T06:15:55.303Z,12.75
2023-02-03T06:18:21.692Z,24.98
2023-02-03T06:20:48.056Z,18.27
2023-02-03T06:23:14.680Z,22.55
2023-02-03T06:25:41.050Z,15.35
2023-02-03T06:28:07.505Z,15.93
2023-02-03T06:30:33.970Z,17.95
2023-02-03T06:33:00.430Z,24.23
2023-02-03T06:35:26.899Z,22.15
2023-02-03T06:37:53.390Z,15.07
2023-02-03T06:40:20.074Z,27.63
2023-02-03T06:42:47.503Z,15.05
2023-02-03T06:45:15.146Z,23.85
2023-02-03T06:47:42.373Z,25.30
2023-02-03T06:50:10.142Z,21.02
2023-02-03T06:52:36.602Z,22.95
2023-02-03T06:55:04.448Z,16.52
2023-02-03T06:57:30.999Z,28.30
2023-02-03T06:59:57.543Z,29.33
2023-02-03T07:02:24.023Z,32.42
2023-02-03T07:04:50.515Z,28.90
2023-02-03T07:07:17.242Z,37.10
2023-02-03T07:09:43.827Z,23.17
2023-02-03T07:12:10.213Z,22.58
2023-02-03T07:14:36.691Z,32.78
2023-02-03T07:17:03.205Z,29.13
2023-02-03T07:19:29.753Z,35.72
2023-02-03T07:21:56.131Z,32.03
2023-02-03T07:24:22.528Z,27.00
2023-02-03T07:26:48.920Z,31.67
2023-02-03T07:29:15.289Z,26.90
2023-02-03T07:31:41.776Z,29.48
2023-02-03T07:34:08.182Z,24.77
2023-02-03T07:36:34.634Z,26.17
2023-02-03T07:39:01.078Z,21.52
2023-02-03T07:41:27.523Z,28.63
2023-02-03T07:43:53.895Z,21.20
2023-02-03T07:46:20.504Z,29.48
2023-02-03T07:48:46.899Z,30.33
2023-02-03T07:51:13.359Z,26.85
2023-02-03T07:53:39.721Z,30.67
2023-02-03T07:56:06.176Z,25.80
2023-02-03T07:58:32.749Z,28.58
2023-02-03T08:00:59.668Z,29.90
2023-02-03T08:03:26.175Z,32.53
2023-02-03T08:05:53.385Z,29.17
2023-02-03T08:08:19.766Z,34.65
2023-02-03T08:10:46.164Z,37.30
2023-02-03T08:13:12.714Z,38.00
2023-02-03T08:15:39.073Z,45.00
2023-02-03T08:18:05.711Z,30.67
2023-02-03T08:20:32.078Z,29.55
2023-02-03T08:22:58.563Z,33.90
2023-02-03T08:25:24.928Z,42.90
2023-02-03T08:27:53.177Z,49.72
2023-02-03T08:30:19.571Z,40.30
2023-02-03T08:32:45.962Z,44.47
2023-02-03T08:35:12.437Z,43.53
2023-02-03T08:37:38.977Z,38.95
2023-02-03T08:40:06.434Z,37.92
2023-02-03T08:42:33.079Z,56.92
2023-02-03T08:44:59.498Z,41.30
2023-02-03T08:47:26.559Z,56.78
2023-02-03T08:49:53.269Z,50.60
2023-02-03T08:52:19.850Z,60.00
2023-02-03T08:54:46.985Z,53.80
2023-02-03T08:57:13.762Z,63.28
2023-02-03T08:59:42.234Z,53.78
2023-02-03T09:02:13.306Z,60.20
2023-02-03T09:04:39.814Z,61.70
2023-02-03T09:07:06.246Z,64.75
2023-02-03T09:09:35.262Z,66.75
2023-02-03T09:12:05.335Z,58.90
2023-02-03T09:14:33.209Z,70.45
2023-02-03T09:17:01.229Z,61.88
2023-02-03T09:19:27.720Z,64.15
2023-02-03T09:21:54.123Z,65.72
2023-02-03T09:24:20.921Z,62.85
2023-02-03T09:26:47.272Z,60.35
2023-02-03T09:29:13.773Z,87.60
2023-02-03T09:31:40.210Z,56.58
2023-02-03T09:34:06.820Z,57.03
2023-02-03T09:36:33.609Z,77.72
2023-02-03T09:39:00.307Z,75.40
2023-02-03T09:41:46.004Z,59.13
2023-02-03T09:44:34.430Z,82.60
2023-02-03T09:47:04.871Z,64.07
2023-02-03T09:49:42.410Z,70.20
2023-02-03T09:52:15.033Z,56.13
2023-02-03T09:54:56.959Z,69.18
2023-02-03T09:57:26.664Z,69.68
2023-02-03T09:59:55.686Z,66.75
2023-02-03T10:02:34.253Z,59.83
2023-02-03T10:05:25.300Z,74.05
2023-02-03T10:08:03.397Z,66.38
2023-02-03T10:10:42.157Z,67.07
2023-02-03T10:13:34.497Z,67.63
2023-02-03T10:16:15.255Z,84.82
2023-02-03T10:18:53.111Z,79.93
2023-02-03T10:21:41.094Z,76.82
2023-02-03T10:24:15.622Z,90.13
2023-02-03T10:26:42.434Z,69.30
2023-02-03T10:29:32.831Z,73.15
2023-02-03T10:32:00.014Z,76.75
2023-02-03T10:34:27.726Z,67.22
2023-02-03T10:36:56.711Z,80.32
2023-02-03T10:39:43.948Z,60.38
2023-02-03T10:42:12.254Z,60.40
2023-02-03T10:44:42.666Z,57.53
2023-02-03T10:47:23.268Z,66.15
2023-02-03T10:49:52.460Z,68.00
2023-02-03T10:52:31.245Z,68.05
2023-02-03T10:54:59.378Z,67.05
2023-02-03T10:57:28.629Z,67.40
2023-02-03T11:00:06.246Z,64.38
2023-02-03T11:02:32.769Z,46.90
2023-02-03T11:05:20.980Z,60.42
2023-02-03T11:07:48.457Z,58.65
2023-02-03T11:10:35.528Z,52.53
2023-02-03T11:13:13.916Z,67.57
2023-02-03T11:15:45.627Z,52.92
2023-02-03T11:18:27.074Z,57.63
2023-02-03T11:20:53.499Z,58.40
2023-02-03T11:23:23.443Z,66.47
2023-02-03T11:25:50.580Z,53.22
2023-02-03T11:28:17.971Z,61.83
2023-02-03T11:30:44.594Z,53.85
2023-02-03T11:33:18.517Z,51.08
2023-02-03T11:35:57.749Z,48.83
2023-02-03T11:38:30.660Z,53.80
2023-02-03T11:41:03.351Z,58.25
2023-02-03T11:43:30.176Z,46.35
2023-02-03T11:46:03.300Z,55.92
2023-02-03T11:48:35.437Z,50.95
2023-02-03T11:51:33.394Z,51.72
2023-02-03T11:54:11.110Z,46.20
2023-02-03T11:56:43.373Z,63.58
2023-02-03T11:59:47.606Z,49.42
2023-02-03T12:02:44.042Z,51.60
2023-02-03T12:05:19.491Z,44.53
2023-02-03T12:08:29.095Z,55.58
2023-02-03T12:11:03.162Z,41.50
2023-02-03T12:13:45.487Z,50.58
2023-02-03T12:16:48.867Z,43.22
2023-02-03T12:19:36.190Z,57.88
2023-02-03T12:22:35.018Z,46.75
2023-02-03T12:25:35.688Z,54.88
2023-02-03T12:28:27.321Z,55.30
2023-02-03T12:31:07.502Z,50.03
2023-02-03T12:33:58.132Z,55.65
2023-02-03T12:36:32.859Z,48.70
2023-02-03T12:39:06.624Z,48.22
2023-02-03T12:41:37.930Z,52.28
2023-02-03T12:44:15.485Z,46.67
2023-02-03T12:46:56.251Z,48.50
2023-02-03T12:49:33.323Z,44.80
2023-02-03T12:52:14.250Z,37.47
2023-02-03T12:54:47.724Z,46.03
2023-02-03T12:57:34.397Z,38.55
2023-02-03T13:00:10.475Z,53.97
2023-02-03T13:03:00.598Z,48.35
2023-02-03T13:05:38.000Z,48.28
2023-02-03T13:08:25.263Z,44.70
2023-02-03T13:11:08.597Z,43.42
2023-02-03T13:13:41.917Z,43.63
2023-02-03T13:16:11.687Z,60.45
2023-02-03T13:18:42.512Z,45.05
2023-02-03T13:21:12.747Z,36.38
2023-02-03T13:23:44.627Z,47.00
2023-02-03T13:26:35.050Z,42.42
2023-02-03T13:29:26.888Z,47.72
2023-02-03T13:32:10.806Z,35.22
2023-02-03T13:34:52.600Z,48.10
2023-02-03T13:37:55.134Z,47.65
2023-02-03T13:40:45.180Z,45.95
2023-02-03T13:43:23.074Z,45.30
2023-02-03T13:45:59.619Z,44.65
2023-02-03T13:48:29.434Z,56.33
2023-02-03T13:51:17.627Z,36.28
2023-02-03T13:53:46.265Z,58.08
2023-02-03T13:56:20.324Z,45.08
2023-02-03T13:59:25.236Z,41.15
2023-02-03T14:01:51.922Z,49.78
2023-02-03T14:04:47.716Z,43.95
2023-02-03T14:07:38.003Z,44.22
2023-02-03T14:10:13.502Z,46.33
2023-02-03T14:12:52.051Z,52.35
2023-02-03T14:15:23.285Z,42.17
2023-02-03T14:18:04.060Z,48.83
2023-02-03T14:20:39.416Z,50.95
2023-02-03T14:23:05.702Z,50.88
2023-02-03T14:25:40.232Z,50.22
2023-02-03T14:28:13.186Z,44.40
2023-02-03T14:31:06.489Z,46.67
2023-02-03T14:33:48.226Z,42.28
2023-02-03T14:36:37.902Z,44.35
2023-02-03T14:39:41.294Z,42.83
2023-02-03T14:42:17.314Z,40.72
2023-02-03T14:45:18.574Z,52.00
2023-02-03T14:47:59.064Z,37.75
2023-02-03T14:50:52.188Z,45.10
2023-02-03T14:53:41.819Z,50.65
2023-02-03T14:56:59.323Z,47.75
2023-02-03T14:59:36.577Z,39.20
2023-02-03T15:02:02.974Z,55.95
2023-02-03T15:04:29.414Z,44.83
2023-02-03T15:06:55.898Z,47.92
2023-02-03T15:09:45.872Z,45.35
2023-02-03T15:12:17.906Z,41.53
2023-02-03T15:14:44.336Z,51.13
2023-02-03T15:17:22.275Z,47.38
2023-02-03T15:19:48.943Z,47.95
2023-02-03T15:22:20.193Z,54.97
2023-02-03T15:24:46.798Z,55.65
2023-02-03T15:27:39.278Z,60.40
2023-02-03T15:30:21.556Z,40.05
2023-02-03T15:33:04.711Z,50.20
2023-02-03T15:35:34.217Z,51.88
2023-02-03T15:38:04.667Z,52.78
2023-02-03T15:40:45.024Z,61.28
2023-02-03T15:43:38.052Z,52.15
2023-02-03T15:46:30.455Z,49.83
2023-02-03T15:49:03.533Z,51.83
2023-02-03T15:51:39.481Z,48.55
2023-02-03T15:54:13.963Z,59.75
2023-02-03T15:56:44.333Z,59.00
2023-02-03T15:59:23.881Z,44.83
2023-02-03T16:01:51.775Z,46.55
2023-02-03T16:04:19.290Z,50.95
2023-02-03T16:06:48.950Z,51.22
2023-02-03T16:09:29.317Z,50.17
2023-02-03T16:12:14.431Z,58.00
2023-02-03T16:14:42.172Z,46.10
2023-02-03T16:17:26.817Z,45.60
2023-02-03T16:20:13.231Z,50.90
2023-02-03T16:23:04.491Z,42.92
2023-02-03T16:25:33.583Z,52.75
2023-02-03T16:28:22.677Z,45.72
2023-02-03T16:31:16.334Z,36.22
2023-02-03T16:34:08.975Z,50.88
2023-02-03T16:36:59.504Z,51.92
2023-02-03T16:39:45.544Z,43.45
2023-02-03T16:42:38.648Z,61.60
2023-02-03T16:45:33.241Z,59.55
2023-02-03T16:48:18.381Z,46.42
2023-02-03T16:50:58.211Z,59.65
2023-02-03T16:53:28.506Z,58.47
2023-02-03T16:55:57.216Z,53.65
2023-02-03T16:58:23.815Z,51.03
2023-02-03T17:00:52.379Z,54.10
2023-02-03T17:03:21.503Z,64.20
2023-02-03T17:05:49.163Z,46.67
2023-02-03T17:08:17.040Z,50.05
2023-02-03T17:10:44.842Z,59.70
2023-02-03T17:13:11.868Z,51.83
2023-02-03T17:15:43.079Z,43.00
2023-02-03T17:18:09.911Z,51.90
2023-02-03T17:20:36.894Z,56.60
2023-02-03T17:23:03.936Z,54.70
2023-02-03T17:25:33.850Z,49.08
2023-02-03T17:28:00.411Z,54.65
2023-02-03T17:30:28.983Z,50.20
2023-02-03T17:32:57.574Z,43.70
2023-02-03T17:35:25.489Z,54.03
2023-02-03T17:37:52.883Z,51.65
2023-02-03T17:54:06.584Z,54.60
2023-02-03T17:56:35.445Z,52.40
2023-02-03T17:59:03.567Z,52.67
2023-02-03T18:01:30.321Z,56.45
2023-02-03T18:04:02.932Z,57.55
2023-02-03T18:06:34.973Z,46.08
2023-02-03T18:09:06.396Z,53.42
2023-02-03T18:11:34.356Z,61.20
2023-02-03T18:14:02.897Z,47.33
2023-02-03T18:16:33.048Z,57.50
2023-02-03T18:19:03.142Z,53.42
2023-02-03T18:21:32.188Z,53.40
2023-02-03T18:24:01.637Z,40.17
2023-02-03T18:26:34.415Z,51.10
2023-02-03T18:29:01.380Z,45.53
2023-02-03T18:31:28.276Z,46.95
2023-02-03T18:33:55.906Z,49.63
2023-02-03T18:36:22.311Z,39.90
2023-02-03T18:38:48.794Z,44.55
2023-02-03T18:41:21.830Z,43.55
2023-02-03T18:43:49.269Z,48.70
2023-02-03T18:46:21.848Z,35.95
2023-02-03T18:48:48.496Z,36.50
2023-02-03T18:51:16.524Z,42.05
2023-02-03T18:53:45.017Z,45.95
2023-02-03T18:56:16.263Z,29.63
2023-02-03T18:58:42.837Z,36.47
2023-02-03T19:01:09.782Z,27.30
2023-02-03T19:03:37.980Z,32.85
2023-02-03T19:06:09.368Z,33.13
2023-02-03T19:08:35.833Z,37.38
2023-02-03T19:11:02.289Z,29.20
2023-02-03T19:13:28.785Z,42.17
2023-02-03T19:15:55.222Z,40.20
2023-02-03T19:18:21.582Z,34.03
2023-02-03T19:20:48.060Z,34.33
2023-02-03T19:23:14.708Z,34.22
2023-02-03T19:25:41.146Z,30.92
2023-02-03T19:28:14.329Z,23.20
2023-02-03T19:30:44.045Z,34.42
2023-02-03T19:33:10.956Z,30.63
2023-02-03T19:35:38.460Z,24.20
2023-02-03T19:38:05.443Z,28.08
2023-02-03T19:40:32.004Z,20.83
2023-02-03T19:42:58.981Z,21.17
2023-02-03T19:45:25.337Z,27.05
2023-02-03T19:47:51.764Z,20.50
2023-02-03T19:50:18.250Z,12.50
2023-02-03T19:52:44.768Z,21.50
2023-02-03T19:55:12.113Z,16.50
2023-02-03T19:57:38.489Z,17.60
2023-02-03T20:00:05.397Z,16.63
2023-02-03T20:02:39.975Z,23.73
2023-02-03T20:05:06.848Z,24.83
2023-02-03T20:07:33.718Z,15.13
2023-02-03T20:10:00.911Z,16.38
2023-02-03T20:12:27.464Z,12.13
2023-02-03T20:14:53.918Z,20.00
2023-02-03T20:17:20.434Z,7.03
2023-02-03T20:19:46.822Z,6.50
2023-02-03T20:22:13.909Z,8.32
2023-02-03T20:24:40.340Z,15.52
2023-02-03T20:27:06.776Z,10.18
2023-02-03T20:29:33.215Z,8.68
2023-02-03T20:31:59.660Z,8.13
2023-02-03T20:34:27.365Z,5.70
2023-02-03T20:36:58.495Z,10.80
2023-02-03T20:39:24.889Z,12.68
2023-02-03T20:41:51.313Z,10.93
2023-02-03T20:44:17.682Z,9.85
2023-02-03T20:46:44.385Z,8.55
2023-02-03T20:49:12.717Z,6.40
2023-02-03T20:51:39.326Z,5.68
2023-02-03T20:54:15.464Z,7.22
2023-02-03T20:56:41.834Z,6.20
2023-02-03T20:59:13.114Z,6.47
2023-02-03T21:01:39.599Z,8.38
2023-02-03T21:04:35.083Z,8.32
2023-02-03T21:07:10.633Z,8.95
2023-02-03T21:09:37.434Z,6.32
2023-02-03T21:12:10.713Z,4.43
2023-02-03T21:14:42.572Z,5.93
2023-02-03T21:17:21.117Z,7.65
2023-02-03T21:19:48.057Z,5.30
2023-02-03T21:22:25.471Z,4.07
2023-02-03T21:24:57.308Z,5.78
2023-02-03T21:27:34.504Z,2.40
2023-02-03T21:30:06.178Z,4.22
2023-02-03T21:32:38.292Z,5.28
2023-02-03T21:35:32.084Z,3.78
2023-02-03T21:38:03.807Z,4.18
2023-02-03T21:40:35.168Z,3.40
2023-02-03T21:43:03.179Z,4.93
2023-02-03T21:45:38.951Z,4.25
2023-02-03T21:48:22.600Z,3.30
2023-02-03T21:50:49.059Z,4.68
2023-02-03T21:53:15.465Z,3.13
2023-02-03T21:55:43.044Z,5.50
2023-02-03T21:58:32.446Z,5.63
2023-02-03T22:01:01.795Z,2.95
2023-02-03T22:03:29.894Z,5.40
2023-02-03T22:06:14.945Z,4.75
2023-02-03T22:08:46.656Z,4.57
2023-02-03T22:11:14.581Z,4.45
2023-02-03T22:13:41.206Z,2.30
2023-02-03T22:16:07.687Z,4.47
2023-02-03T22:18:34.445Z,4.07
2023-02-03T22:21:00.914Z,2.80
2023-02-03T22:23:27.480Z,5.82
2023-02-03T22:25:54.150Z,4.50
2023-02-03T22:28:20.676Z,5.55
2023-02-03T22:30:47.906Z,3.90
2023-02-03T22:33:14.332Z,4.53
2023-02-03T22:35:40.706Z,2.58
2023-02-03T22:38:07.458Z,3.80
2023-02-03T22:40:33.845Z,3.08
2023-02-03T22:43:00.210Z,3.97
2023-02-03T22:45:26.633Z,2.45
2023-02-03T22:47:53.037Z,2.38
2023-02-03T22:50:27.139Z,3.83
2023-02-03T22:53:02.180Z,2.90
2023-02-03T22:55:28.629Z,3.67
2023-02-03T22:57:55.032Z,3.45
2023-02-03T23:00:24.071Z,2.90
2023-02-03T23:02:50.906Z,2.67
2023-02-03T23:05:18.570Z,2.10
2023-02-03T23:07:45.777Z,5.53
2023-02-03T23:10:17.188Z,3.75
2023-02-03T23:12:43.994Z,2.63
2023-02-03T23:15:10.455Z,2.50
2023-02-03T23:17:36.991Z,1.95
2023-02-03T23:20:04.545Z,3.75
2023-02-03T23:22:31.090Z,4.68
2023-02-03T23:24:57.619Z,4.32
2023-02-03T23:27:23.981Z,2.88
2023-02-03T23:29:50.529Z,2.80
2023-02-03T23:32:16.890Z,3.33
2023-02-03T23:35:02.296Z,2.35
2023-02-03T23:37:28.775Z,3.40
2023-02-03T23:39:56.200Z,2.83
2023-02-03T23:42:22.727Z,2.03
2023-02-03T23:44:49.159Z,3.22
2023-02-03T23:47:15.512Z,5.63
2023-02-03T23:49:41.901Z,3.47
2023-02-03T23:52:08.473Z,4.03
2023-02-03T23:54:34.839Z,2.17
2023-02-03T23:57:02.181Z,2.33
2023-02-03T23:59:28.511Z,3.70
